createdAt,value
2019-05-13T00:02:25.436Z,8.42
2019-05-13T00:04:53.337Z,8.35
2019-05-13T00:07:21.220Z,8.31
2019-05-13T00:09:49.044Z,8.26
2019-05-13T00:12:16.871Z,8.25
2019-05-13T00:14:44.654Z,8.19
2019-05-13T00:17:14.554Z,8.13
2019-05-13T00:19:44.121Z,8.12
2019-05-13T00:22:13.919Z,8.03
2019-05-13T00:24:43.712Z,7.97
2019-05-13T00:27:11.279Z,7.96
2019-05-13T00:29:39.075Z,7.93
2019-05-13T00:32:06.837Z,7.80
2019-05-13T00:34:34.661Z,7.75
2019-05-13T00:37:08.714Z,7.72
2019-05-13T00:39:33.630Z,7.71
2019-05-13T00:42:03.763Z,7.70
2019-05-13T00:44:33.588Z,7.67
2019-05-13T00:47:01.165Z,7.64
2019-05-13T00:49:28.963Z,7.59
2019-05-13T00:51:56.747Z,7.60
2019-05-13T00:54:24.579Z,7.57
2019-05-13T00:56:54.644Z,7.50
2019-05-13T00:59:24.105Z,7.44
2019-05-13T01:01:53.272Z,7.45
2019-05-13T01:04:23.219Z,7.39
2019-05-13T01:06:51.056Z,7.33
2019-05-13T01:09:18.854Z,7.35
2019-05-13T01:11:46.622Z,7.29
2019-05-13T01:14:14.528Z,7.23
2019-05-13T01:16:44.322Z,7.21
2019-05-13T01:19:14.255Z,7.15
2019-05-13T01:21:44.564Z,7.11
2019-05-13T01:24:14.461Z,7.12
2019-05-13T01:26:43.809Z,7.11
2019-05-13T01:29:13.483Z,7.06
2019-05-13T01:31:43.400Z,7.11
2019-05-13T01:34:11.175Z,7.12
2019-05-13T01:36:38.981Z,7.05
2019-05-13T01:39:06.909Z,6.98
2019-05-13T01:41:34.779Z,6.93
2019-05-13T01:44:04.043Z,6.92
2019-05-13T01:46:34.511Z,6.91
2019-05-13T01:49:04.938Z,6.94
2019-05-13T01:51:33.464Z,6.96
2019-05-13T01:54:03.959Z,6.88
2019-05-13T01:56:33.812Z,6.83
2019-05-13T01:59:05.744Z,6.78
2019-05-13T02:01:33.866Z,6.75
2019-05-13T02:04:03.903Z,6.77
2019-05-13T02:06:33.597Z,6.75
2019-05-13T02:09:03.822Z,6.69
2019-05-13T02:11:31.002Z,6.64
2019-05-13T02:13:58.804Z,6.62
2019-05-13T02:16:26.621Z,6.56
2019-05-13T02:18:54.395Z,6.53
2019-05-13T02:21:24.177Z,6.48
2019-05-13T02:23:53.624Z,6.46
2019-05-13T02:26:23.889Z,6.39
2019-05-13T02:28:51.312Z,6.43
2019-05-13T02:31:32.501Z,6.34
2019-05-13T02:33:48.813Z,6.39
2019-05-13T02:36:16.642Z,6.43
2019-05-13T02:38:44.459Z,6.30
2019-05-13T02:41:13.374Z,6.27
2019-05-13T02:43:45.066Z,6.21
2019-05-13T02:46:12.810Z,6.27
2019-05-13T02:48:42.220Z,6.25
2019-05-13T02:51:12.436Z,6.31
2019-05-13T02:53:43.462Z,6.29
2019-05-13T02:56:11.644Z,6.27
2019-05-13T02:58:42.568Z,6.21
2019-05-13T03:01:12.244Z,6.13
2019-05-13T03:03:38.776Z,6.04
2019-05-13T03:06:06.602Z,6.03
2019-05-13T03:08:44.975Z,5.97
2019-05-13T03:11:04.042Z,5.94
2019-05-13T03:13:32.542Z,5.93
2019-05-13T03:16:13.349Z,5.85
2019-05-13T03:18:43.405Z,5.80
2019-05-13T03:21:12.692Z,5.92
2019-05-13T03:23:43.588Z,5.80
2019-05-13T03:26:12.672Z,5.80
2019-05-13T03:28:43.718Z,5.72
2019-05-13T03:31:16.784Z,5.73
2019-05-13T03:33:46.834Z,5.73
2019-05-13T03:36:16.436Z,5.69
2019-05-13T03:38:59.342Z,5.60
2019-05-13T03:41:12.752Z,5.62
2019-05-13T03:43:43.318Z,5.67
2019-05-13T03:46:12.406Z,5.62
2019-05-13T03:48:42.858Z,5.61
2019-05-13T03:51:13.426Z,5.68
2019-05-13T03:53:43.177Z,5.59
2019-05-13T03:56:12.898Z,5.62
2019-05-13T03:58:43.286Z,5.64
2019-05-13T04:01:13.063Z,5.60
2019-05-13T04:03:43.512Z,5.61
2019-05-13T04:06:13.636Z,5.66
2019-05-13T04:08:43.032Z,5.66
2019-05-13T04:11:12.599Z,5.64
2019-05-13T04:13:42.540Z,5.67
2019-05-13T04:16:12.369Z,5.62
2019-05-13T04:18:38.963Z,5.64
2019-05-13T04:21:07.074Z,5.64
2019-05-13T04:23:34.978Z,5.64
2019-05-13T04:26:03.417Z,5.72
2019-05-13T04:28:33.102Z,5.77
2019-05-13T04:31:03.607Z,5.77
2019-05-13T04:33:33.448Z,5.89
2019-05-13T04:36:02.624Z,5.92
2019-05-13T04:38:33.124Z,5.86
2019-05-13T04:41:03.453Z,6.10
2019-05-13T04:43:34.555Z,6.09
2019-05-13T04:46:02.590Z,6.10
2019-05-13T04:48:33.616Z,6.13
2019-05-13T04:51:03.083Z,6.12
2019-05-13T04:53:33.364Z,6.14
2019-05-13T04:56:03.156Z,6.19
2019-05-13T04:58:32.204Z,6.31
2019-05-13T05:01:55.378Z,6.37
2019-05-13T05:04:35.240Z,6.50
2019-05-13T05:07:42.033Z,6.53
2019-05-13T05:11:17.583Z,6.58
2019-05-13T05:14:52.207Z,6.72
2019-05-13T05:17:57.226Z,6.91
2019-05-13T05:20:52.901Z,7.00
2019-05-13T05:24:07.723Z,7.06
2019-05-13T05:27:38.110Z,7.37
2019-05-13T05:30:41.229Z,7.96
2019-05-13T05:34:17.801Z,8.46
2019-05-13T05:38:01.516Z,8.88
2019-05-13T05:40:34.748Z,9.55
2019-05-13T05:43:05.483Z,10.13
2019-05-13T05:45:36.398Z,10.52
2019-05-13T05:48:06.103Z,10.92
2019-05-13T05:50:36.063Z,10.72
2019-05-13T05:53:05.518Z,10.78
2019-05-13T05:55:35.619Z,11.80
2019-05-13T05:58:06.387Z,12.05
2019-05-13T06:00:37.617Z,12.46
2019-05-13T06:03:08.176Z,13.05
2019-05-13T06:05:36.456Z,14.42
2019-05-13T06:08:04.751Z,14.72
2019-05-13T06:10:46.207Z,14.10
2019-05-13T06:13:03.655Z,14.17
2019-05-13T06:15:31.974Z,14.41
2019-05-13T06:18:02.143Z,15.09
2019-05-13T06:20:31.702Z,14.64
2019-05-13T06:23:02.027Z,16.00
2019-05-13T06:25:33.308Z,16.73
2019-05-13T06:27:58.890Z,16.32
2019-05-13T06:30:26.732Z,15.92
2019-05-13T06:32:54.536Z,17.16
2019-05-13T06:35:22.365Z,17.94
2019-05-13T06:37:52.061Z,18.06
2019-05-13T06:40:21.455Z,18.81
2019-05-13T06:42:51.957Z,20.29
2019-05-13T06:45:21.446Z,22.28
2019-05-13T06:47:51.866Z,23.53
2019-05-13T06:50:18.903Z,24.09
2019-05-13T06:52:46.688Z,23.87
2019-05-13T06:55:14.588Z,23.72
2019-05-13T06:57:42.403Z,23.94
2019-05-13T07:00:12.210Z,23.86
2019-05-13T07:02:42.551Z,24.39
2019-05-13T07:05:12.048Z,24.41
2019-05-13T07:07:42.177Z,24.65
2019-05-13T07:10:12.495Z,25.72
2019-05-13T07:12:41.163Z,27.41
2019-05-13T07:15:11.562Z,25.83
2019-05-13T07:17:41.578Z,26.30
2019-05-13T07:20:16.000Z,27.47
2019-05-13T07:22:43.868Z,28.57
2019-05-13T07:25:11.870Z,29.34
2019-05-13T07:27:42.191Z,28.95
2019-05-13T07:30:11.310Z,28.80
2019-05-13T07:32:41.880Z,28.21
2019-05-13T07:35:13.348Z,27.52
2019-05-13T07:37:42.205Z,30.39
2019-05-13T07:40:12.492Z,30.61
2019-05-13T07:42:41.992Z,30.89
2019-05-13T07:45:12.169Z,26.41
2019-05-13T07:47:41.679Z,25.38
2019-05-13T07:50:12.496Z,26.22
2019-05-13T07:52:42.263Z,25.04
2019-05-13T07:55:12.004Z,27.26
2019-05-13T07:57:42.073Z,28.34
2019-05-13T08:00:09.407Z,31.23
2019-05-13T08:02:37.216Z,31.76
2019-05-13T08:05:05.098Z,31.72
2019-05-13T08:07:32.919Z,33.70
2019-05-13T08:10:03.361Z,34.08
2019-05-13T08:12:31.928Z,32.63
2019-05-13T08:15:02.938Z,33.29
2019-05-13T08:17:32.553Z,34.45
2019-05-13T08:20:03.149Z,34.88
2019-05-13T08:22:32.027Z,32.61
2019-05-13T08:25:03.084Z,29.35
2019-05-13T08:27:33.656Z,30.12
2019-05-13T08:30:02.237Z,31.21
2019-05-13T08:32:31.485Z,32.40
2019-05-13T08:35:03.151Z,31.23
2019-05-13T08:37:31.947Z,32.97
2019-05-13T08:40:01.346Z,31.72
2019-05-13T08:42:28.895Z,34.00
2019-05-13T08:44:56.704Z,35.94
2019-05-13T08:47:24.653Z,35.64
2019-05-13T08:49:52.442Z,33.85
2019-05-13T08:52:21.938Z,34.64
2019-05-13T08:54:52.210Z,36.53
2019-05-13T08:57:21.969Z,36.50
2019-05-13T08:59:51.526Z,38.80
2019-05-13T09:02:19.256Z,38.50
2019-05-13T09:04:47.051Z,40.01
2019-05-13T09:07:14.905Z,40.55
2019-05-13T09:09:42.828Z,40.79
2019-05-13T09:12:11.631Z,40.21
2019-05-13T09:14:41.665Z,38.69
2019-05-13T09:17:11.897Z,39.04
2019-05-13T09:19:41.421Z,41.75
2019-05-13T09:22:08.999Z,41.66
2019-05-13T09:24:37.920Z,42.40
2019-05-13T09:27:06.035Z,42.87
2019-05-13T09:29:33.916Z,42.66
2019-05-13T09:32:03.800Z,39.16
2019-05-13T09:34:32.805Z,36.59
2019-05-13T09:37:02.886Z,39.64
2019-05-13T09:39:32.332Z,42.89
2019-05-13T09:42:02.641Z,40.19
2019-05-13T09:44:32.755Z,39.10
2019-05-13T09:47:02.532Z,36.39
2019-05-13T09:49:32.787Z,38.39
2019-05-13T09:52:01.647Z,41.50
2019-05-13T09:54:32.611Z,39.83
2019-05-13T09:57:01.735Z,39.68
2019-05-13T09:59:31.525Z,42.89
2019-05-13T10:01:58.949Z,42.41
2019-05-13T10:04:26.785Z,35.49
2019-05-13T10:06:54.595Z,35.39
2019-05-13T10:09:22.436Z,34.67
2019-05-13T10:11:51.944Z,37.90
2019-05-13T10:14:19.971Z,40.31
2019-05-13T10:16:47.772Z,40.42
2019-05-13T10:19:15.615Z,37.32
2019-05-13T10:21:43.450Z,39.30
2019-05-13T10:24:12.554Z,40.08
2019-05-13T10:26:42.929Z,42.57
2019-05-13T10:29:11.891Z,41.25
2019-05-13T10:31:42.054Z,37.76
2019-05-13T10:34:10.035Z,35.01
2019-05-13T10:36:42.092Z,32.66
2019-05-13T10:39:11.831Z,32.94
2019-05-13T10:41:42.034Z,36.57
2019-05-13T10:44:12.094Z,33.37
2019-05-13T10:46:38.976Z,28.17
2019-05-13T10:49:07.024Z,32.03
2019-05-13T10:51:34.822Z,34.34
2019-05-13T10:54:03.084Z,35.87
2019-05-13T10:56:32.743Z,33.56
2019-05-13T10:59:02.650Z,36.46
2019-05-13T11:01:32.722Z,39.23
2019-05-13T11:04:02.605Z,38.43
2019-05-13T11:06:32.106Z,34.30
2019-05-13T11:09:02.043Z,33.96
2019-05-13T11:11:32.046Z,37.15
2019-05-13T11:14:07.074Z,36.87
2019-05-13T11:16:28.774Z,37.35
2019-05-13T11:18:56.588Z,31.75
2019-05-13T11:21:24.402Z,32.90
2019-05-13T11:23:52.343Z,30.16
2019-05-13T11:26:22.120Z,25.97
2019-05-13T11:28:52.178Z,25.59
2019-05-13T11:31:21.741Z,30.34
2019-05-13T11:33:51.900Z,31.05
2019-05-13T11:36:19.554Z,30.13
2019-05-13T11:38:47.456Z,27.09
2019-05-13T11:41:17.238Z,24.10
2019-05-13T11:43:45.159Z,23.86
2019-05-13T11:46:13.095Z,26.92
2019-05-13T11:48:42.558Z,31.53
2019-05-13T11:51:13.127Z,36.34
2019-05-13T11:53:41.698Z,39.40
2019-05-13T11:56:11.477Z,38.67
2019-05-13T11:58:42.821Z,34.21
2019-05-13T12:01:09.260Z,29.13
2019-05-13T12:03:37.120Z,29.43
2019-05-13T12:06:04.958Z,35.56
2019-05-13T12:08:34.086Z,37.05
2019-05-13T12:11:04.324Z,36.59
2019-05-13T12:13:32.881Z,33.44
2019-05-13T12:16:03.857Z,31.07
2019-05-13T12:18:32.669Z,32.09
2019-05-13T12:21:03.331Z,30.50
2019-05-13T12:23:30.466Z,33.13
2019-05-13T12:25:58.330Z,34.69
2019-05-13T12:28:26.489Z,35.59
2019-05-13T12:30:54.302Z,36.33
2019-05-13T12:33:22.876Z,34.64
2019-05-13T12:35:52.990Z,37.48
2019-05-13T12:38:22.835Z,39.80
2019-05-13T12:40:52.862Z,34.55
2019-05-13T12:43:24.031Z,28.45
2019-05-13T12:45:53.052Z,25.63
2019-05-13T12:48:22.688Z,22.59
2019-05-13T12:50:52.945Z,21.48
2019-05-13T12:53:21.980Z,22.11
2019-05-13T12:55:55.778Z,27.71
2019-05-13T12:58:18.771Z,31.84
2019-05-13T13:00:46.680Z,33.69
2019-05-13T13:03:14.502Z,37.38
2019-05-13T13:05:43.117Z,37.52
2019-05-13T13:08:24.453Z,37.39
2019-05-13T13:10:42.275Z,39.02
2019-05-13T13:13:10.372Z,35.93
2019-05-13T13:15:46.636Z,37.81
2019-05-13T13:18:08.162Z,38.23
2019-05-13T13:20:42.044Z,34.52
2019-05-13T13:23:05.715Z,31.00
2019-05-13T13:25:33.965Z,28.39
2019-05-13T13:28:10.543Z,24.04
2019-05-13T13:30:35.247Z,23.98
2019-05-13T13:33:02.803Z,26.73
2019-05-13T13:35:33.742Z,28.68
2019-05-13T13:38:04.092Z,25.61
2019-05-13T13:40:34.535Z,22.83
2019-05-13T13:43:05.022Z,21.76
2019-05-13T13:45:32.692Z,24.83
2019-05-13T13:48:03.806Z,27.49
2019-05-13T13:50:33.291Z,24.52
2019-05-13T13:52:58.794Z,23.33
2019-05-13T13:55:26.693Z,25.91
2019-05-13T13:57:56.661Z,24.51
2019-05-13T14:00:38.114Z,23.24
2019-05-13T14:02:56.089Z,22.58
2019-05-13T14:05:26.179Z,21.78
2019-05-13T14:07:54.232Z,21.49
2019-05-13T14:10:22.158Z,21.03
2019-05-13T14:12:52.494Z,20.49
2019-05-13T14:15:21.551Z,19.43
2019-05-13T14:17:51.585Z,19.39
2019-05-13T14:20:21.815Z,18.70
2019-05-13T14:22:48.903Z,18.10
2019-05-13T14:25:16.766Z,17.86
2019-05-13T14:27:44.605Z,17.77
2019-05-13T14:30:12.676Z,17.77
2019-05-13T14:32:42.409Z,17.74
2019-05-13T14:35:12.294Z,17.56
2019-05-13T14:37:40.296Z,17.42
2019-05-13T14:40:08.842Z,17.62
2019-05-13T14:42:36.693Z,17.66
2019-05-13T14:45:05.432Z,17.84
2019-05-13T14:47:33.253Z,17.90
2019-05-13T14:50:02.131Z,17.95
2019-05-13T14:52:32.244Z,17.97
2019-05-13T14:55:02.172Z,17.90
2019-05-13T14:57:32.086Z,17.73
2019-05-13T15:00:02.183Z,17.75
2019-05-13T15:02:29.568Z,17.72
2019-05-13T15:04:58.915Z,17.70
2019-05-13T15:07:26.720Z,17.45
2019-05-13T15:09:54.712Z,17.34
2019-05-13T15:12:22.554Z,17.25
2019-05-13T15:14:52.359Z,17.16
2019-05-13T15:17:23.093Z,17.13
2019-05-13T15:19:52.501Z,17.15
2019-05-13T15:22:22.723Z,17.42
2019-05-13T15:24:51.879Z,17.64
2019-05-13T15:27:21.998Z,17.30
2019-05-13T15:29:51.625Z,16.91
2019-05-13T15:32:19.535Z,16.75
2019-05-13T15:34:51.795Z,16.74
2019-05-13T15:37:18.743Z,16.74
2019-05-13T15:39:48.490Z,16.88
2019-05-13T15:42:16.305Z,17.17
2019-05-13T15:44:44.095Z,17.50
2019-05-13T15:47:22.777Z,17.56
2019-05-13T15:49:41.612Z,17.85
2019-05-13T15:52:11.697Z,17.73
2019-05-13T15:54:41.327Z,17.65
2019-05-13T15:57:08.936Z,17.69
2019-05-13T15:59:36.723Z,17.42
2019-05-13T16:02:04.539Z,17.57
2019-05-13T16:04:32.663Z,17.53
2019-05-13T16:07:01.688Z,17.32
2019-05-13T16:09:31.400Z,16.91
2019-05-13T16:12:01.504Z,16.70
2019-05-13T16:14:31.296Z,16.64
2019-05-13T16:16:58.908Z,16.52
2019-05-13T16:19:27.056Z,16.29
2019-05-13T16:21:54.859Z,16.26
2019-05-13T16:24:22.702Z,16.17
2019-05-13T16:26:52.127Z,16.07
2019-05-13T16:29:22.287Z,16.07
2019-05-13T16:31:51.905Z,16.05
2019-05-13T16:34:22.191Z,16.00
2019-05-13T16:36:49.354Z,15.97
2019-05-13T16:39:17.210Z,15.79
2019-05-13T16:41:45.043Z,15.64
2019-05-13T16:44:12.877Z,15.56
2019-05-13T16:46:42.534Z,15.47
2019-05-13T16:49:12.137Z,15.41
2019-05-13T16:51:42.357Z,15.28
2019-05-13T16:54:09.805Z,15.20
2019-05-13T16:56:37.626Z,15.21
2019-05-13T16:59:05.383Z,15.22
2019-05-13T17:01:33.214Z,15.23
2019-05-13T17:04:01.989Z,15.24
2019-05-13T17:06:32.024Z,15.18
2019-05-13T17:09:01.844Z,15.22
2019-05-13T17:11:29.419Z,15.24
2019-05-13T17:13:57.247Z,15.33
2019-05-13T17:16:25.025Z,15.46
2019-05-13T17:18:52.937Z,15.58
2019-05-13T17:21:21.251Z,15.55
2019-05-13T17:23:49.184Z,15.60
2019-05-13T17:26:17.005Z,15.57
2019-05-13T17:28:44.815Z,15.55
2019-05-13T17:31:12.635Z,15.54
2019-05-13T17:33:40.484Z,15.68
2019-05-13T17:36:08.340Z,15.70
2019-05-13T17:38:36.107Z,15.74
2019-05-13T17:41:03.957Z,15.90
2019-05-13T17:43:32.160Z,16.02
2019-05-13T17:46:00.273Z,16.14
2019-05-13T17:48:29.681Z,15.99
2019-05-13T17:50:57.799Z,15.96
2019-05-13T17:53:25.641Z,15.85
2019-05-13T17:55:53.459Z,15.73
2019-05-13T17:58:22.181Z,15.64
2019-05-13T18:00:51.988Z,15.56
2019-05-13T18:03:19.752Z,15.45
2019-05-13T18:05:47.571Z,15.46
2019-05-13T18:08:15.390Z,15.55
2019-05-13T18:10:43.211Z,15.67
2019-05-13T18:13:12.681Z,15.71
2019-05-13T18:15:40.676Z,15.66
2019-05-13T18:18:08.493Z,15.62
2019-05-13T18:20:36.313Z,15.68
2019-05-13T18:23:04.146Z,15.69
2019-05-13T18:25:31.962Z,15.59
2019-05-13T18:28:01.536Z,15.51
2019-05-13T18:30:31.620Z,15.40
2019-05-13T18:33:01.195Z,15.26
2019-05-13T18:35:31.294Z,15.00
2019-05-13T18:37:58.629Z,14.86
2019-05-13T18:40:26.409Z,14.74
2019-05-13T18:42:54.225Z,14.60
2019-05-13T18:45:22.187Z,14.50
2019-05-13T18:47:51.398Z,14.40
2019-05-13T18:50:19.406Z,14.40
2019-05-13T18:52:47.223Z,14.28
2019-05-13T18:55:15.147Z,14.16
2019-05-13T18:57:42.929Z,14.10
2019-05-13T19:00:11.486Z,14.00
2019-05-13T19:02:41.341Z,13.94
2019-05-13T19:05:11.714Z,14.01
2019-05-13T19:07:41.849Z,13.97
2019-05-13T19:10:11.533Z,13.81
2019-05-13T19:12:41.849Z,13.79
2019-05-13T19:15:11.164Z,13.69
2019-05-13T19:17:41.336Z,13.61
2019-05-13T19:20:11.378Z,13.51
2019-05-13T19:22:38.649Z,13.43
2019-05-13T19:25:06.481Z,13.40
2019-05-13T19:27:34.255Z,13.36
2019-05-13T19:30:02.152Z,13.26
2019-05-13T19:32:32.193Z,13.26
2019-05-13T19:35:02.283Z,13.16
2019-05-13T19:37:31.573Z,13.13
2019-05-13T19:40:00.725Z,13.02
2019-05-13T19:42:31.221Z,12.94
2019-05-13T19:44:58.549Z,13.00
2019-05-13T19:47:26.346Z,12.99
2019-05-13T19:49:54.210Z,12.88
2019-05-13T19:52:22.021Z,12.85
2019-05-13T19:54:51.394Z,12.78
2019-05-13T19:57:21.280Z,12.78
2019-05-13T19:59:49.088Z,12.68
2019-05-13T20:02:16.894Z,12.62
2019-05-13T20:04:44.750Z,12.70
2019-05-13T20:07:12.563Z,12.59
2019-05-13T20:09:42.553Z,12.46
2019-05-13T20:12:11.221Z,12.41
2019-05-13T20:14:39.186Z,12.31
2019-05-13T20:17:07.090Z,12.24
2019-05-13T20:19:46.590Z,12.16
2019-05-13T20:22:04.596Z,12.14
2019-05-13T20:24:32.432Z,12.08
2019-05-13T20:27:01.530Z,12.09
2019-05-13T20:29:29.551Z,12.03
2019-05-13T20:31:57.361Z,12.00
2019-05-13T20:34:25.168Z,11.99
2019-05-13T20:36:52.943Z,11.93
2019-05-13T20:39:22.471Z,11.92
2019-05-13T20:41:55.581Z,11.93
2019-05-13T20:44:22.109Z,11.97
2019-05-13T20:46:51.880Z,11.93
2019-05-13T20:49:21.723Z,11.94
2019-05-13T20:51:51.532Z,11.88
2019-05-13T20:54:21.835Z,11.83
2019-05-13T20:56:51.734Z,11.80
2019-05-13T20:59:21.466Z,11.73
2019-05-13T21:01:51.007Z,11.63
2019-05-13T21:04:18.941Z,11.66
2019-05-13T21:06:46.797Z,11.63
2019-05-13T21:09:17.198Z,11.58
2019-05-13T21:11:44.764Z,11.46
2019-05-13T21:14:12.601Z,11.39
2019-05-13T21:16:41.707Z,11.35
2019-05-13T21:19:12.228Z,11.23
2019-05-13T21:21:41.528Z,11.17
2019-05-13T21:24:09.180Z,11.11
2019-05-13T21:26:36.991Z,11.05
2019-05-13T21:29:04.757Z,11.03
2019-05-13T21:31:32.565Z,10.97
2019-05-13T21:34:01.369Z,10.91
2019-05-13T21:36:29.350Z,10.85
2019-05-13T21:38:57.181Z,10.85
2019-05-13T21:41:25.085Z,10.83
2019-05-13T21:43:52.861Z,10.83
2019-05-13T21:46:21.210Z,10.79
2019-05-13T21:48:49.369Z,10.75
2019-05-13T21:51:17.167Z,10.69
2019-05-13T21:53:44.941Z,10.71
2019-05-13T21:56:12.766Z,10.70
2019-05-13T21:58:41.641Z,10.64
2019-05-13T22:01:09.667Z,10.63
2019-05-13T22:03:37.457Z,10.63
2019-05-13T22:06:05.252Z,10.60
2019-05-13T22:08:33.032Z,10.66
2019-05-13T22:11:01.791Z,10.70
2019-05-13T22:13:31.626Z,10.69
2019-05-13T22:16:01.703Z,10.72
2019-05-13T22:18:31.450Z,10.78
2019-05-13T22:21:01.126Z,10.77
2019-05-13T22:23:28.780Z,10.77
2019-05-13T22:25:56.581Z,10.73
2019-05-13T22:28:24.400Z,10.76
2019-05-13T22:30:52.187Z,10.73
2019-05-13T22:33:21.630Z,10.78
2019-05-13T22:35:52.115Z,10.79
2019-05-13T22:38:21.300Z,10.78
2019-05-13T22:40:49.038Z,10.79
2019-05-13T22:43:16.875Z,10.82
2019-05-13T22:45:44.657Z,10.83
2019-05-13T22:48:14.943Z,10.87
2019-05-13T22:50:42.344Z,10.85
2019-05-13T22:53:12.052Z,10.82
2019-05-13T22:55:41.873Z,10.78
2019-05-13T22:58:09.604Z,10.77
2019-05-13T23:00:37.391Z,10.79
2019-05-13T23:03:05.270Z,10.76
2019-05-13T23:05:33.204Z,10.75
2019-05-13T23:08:02.164Z,10.71
2019-05-13T23:10:31.772Z,10.67
2019-05-13T23:13:01.967Z,10.66
2019-05-13T23:15:29.433Z,10.69
2019-05-13T23:17:57.245Z,10.68
2019-05-13T23:20:25.041Z,10.69
2019-05-13T23:22:52.860Z,10.68
2019-05-13T23:25:21.422Z,10.77
2019-05-13T23:27:51.308Z,10.74
2019-05-13T23:30:19.099Z,10.71
2019-05-13T23:32:47.009Z,10.63
2019-05-13T23:35:14.932Z,10.59
2019-05-13T23:37:42.732Z,10.62
2019-05-13T23:40:11.849Z,10.55
2019-05-13T23:42:39.849Z,10.51
2019-05-13T23:45:07.836Z,10.48
2019-05-13T23:47:35.605Z,10.39
2019-05-13T23:50:03.470Z,10.33
2019-05-13T23:52:31.276Z,10.26
2019-05-13T23:54:59.130Z,10.31
2019-05-13T23:57:26.906Z,10.30
2019-05-13T23:59:54.699Z,10.30
